Station: Oenpelli Airport  

  Atmospheric Gas Attenuation - ITU Rec 676-11   ----------------- dB/100km -----------------
Date Time Temp RH % AH g/m3 Dew Point Wind Direction Speed kph Gust kph Barometer mB Rainfall Since 9am 24GHz 47GHz 76GHz 122GHz 134GHz 241GHz
06/09 14:00 36 32 13.33 16.7 11 19 1012.6 0 28.2 26.6 45.6 120.3 124.8 433.5
06/09 13:50 35.6 33 13.47 16.8 13 20 1012.8 0 28.5 26.9 46.3 122.2 127.0 441.3
06/09 13:40 35 34 13.45 16.8 11 19 1013 0 28.5 27.0 46.6 123.0 127.8 443.8
06/09 13:30 35.3 34 13.66 17 11 19 1013.2 0 28.9 27.3 47.2 124.5 129.8 450.7
06/09 13:20 34.8 35 13.7 17.1 9 22 1013.4 0 29.1 27.5 47.6 125.7 131.1 455.2
06/09 13:10 34.5 36 13.87 17.3 9 17 1013.6 0 29.4 27.8 48.4 127.8 133.6 464.0
06/09 13:00 34.5 35 13.49 16.8 15 24 1013.8 0 28.6 27.3 47.1 124.2 129.1 448.5
06/09 12:50 34.9 36 14.17 17.6 9 19 1014 0 30.0 28.1 49.3 130.1 136.5 474.2
06/09 12:40 34.1 38 14.34 17.8 6 11 1014.3 0 30.4 28.7 50.4 133.1 139.9 486.1
06/09 12:30 33.6 40 14.7 18.1 9 20 1014.5 0 31.2 29.4 52.1 137.5 145.2 504.5
06/09 12:20 33.7 40 14.78 18.2 9 17 1014.7 0 31.3 29.5 52.3 138.1 146.0 507.4
06/09 12:10 33.5 40 14.63 18 7 15 1014.9 0 31.1 29.3 51.9 137.0 144.6 502.3
06/09 12:00 32.7 44 15.42 18.8 4 9 1015.2 0 32.7 30.8 55.4 146.4 155.9 541.9
06/09 11:50 33 43 15.31 18.7 7 13 1015.4 0 32.5 30.5 54.8 144.8 154.0 535.1
06/09 11:40 32.3 45 15.44 18.8 9 17 1015.7 0 32.8 31.0 55.8 147.4 157.0 545.7
06/09 11:30 32.9 44 15.59 19 7 17 1015.8 0 33.1 31.0 56.0 147.9 157.7 548.2
06/09 11:20 31.7 47 15.62 19 4 7 1016.1 0 33.2 31.5 57.0 150.5 160.6 558.1
06/09 11:10 32.4 46 15.87 19.3 6 15 1016.4 0 33.7 31.7 57.5 151.8 162.4 564.4
06/09 11:00 32.4 44 15.18 18.6 7 15 1016.6 0 32.3 30.6 54.8 144.7 153.7 533.9
06/09 10:50 31.3 45 14.64 17.9 9 17 1016.9 0 31.2 30.1 53.5 141.2 149.0 517.5
06/09 10:40 32 46 15.53 18.9 7 19 1017 0 33.0 31.3 56.4 149.1 158.9 552.3
06/09 10:30 31.4 50 16.35 19.7 7 15 1017.2 0 34.8 32.8 60.2 159.0 170.9 593.9
06/09 10:20 30.9 51 16.24 19.6 7 13 1017.4 0 34.6 32.8 60.1 158.8 170.6 592.7
06/09 10:10 30.6 53 16.6 19.9 9 15 1017.5 0 35.3 33.5 61.8 163.3 176.0 611.8
06/09 10:00 30.2 55 16.86 20.2 7 15 1017.5 0 35.9 34.1 63.2 167.0 180.5 627.2
06/09 09:50 30.1 55 16.77 20.1 7 13 1017.5 0 35.7 34.0 62.9 166.3 179.5 623.7
06/09 09:40 29.5 57 16.83 20.1 7 13 1017.5 0 35.9 34.4 63.6 168.2 181.7 631.4
06/09 09:30 29.5 57 16.83 20.1 6 11 1017.5 0 35.9 34.4 63.6 168.2 181.7 631.4
06/09 09:20 28.9 62 17.71 20.9 4 9 1017.5 0 37.8 36.1 67.9 179.5 195.5 679.2
06/09 09:10 29 67 19.25 22.2 4 7 1017.5 0 41.0 38.8 74.6 197.4 217.4 755.7
06/09 09:00 27.7 70 18.73 21.7 6 9 1017.5 0 40.1 38.5 73.5 194.5 213.4 741.7
06/09 08:50 28.1 70 19.14 22.1 4 7 1017.5 0 40.9 39.0 75.0 198.4 218.4 758.9
06/09 08:40 27.4 74 19.47 22.4 2 4 1017.5 0 41.7 40.0 77.2 204.3 225.4 783.2
06/09 08:30 26.9 77 19.71 22.5 2 4 1017.4 0 42.2 40.6 78.8 208.6 230.6 801.1
06/09 08:20 26.4 78 19.42 22.3 2 4 1017.3 0 41.7 40.3 78.0 206.3 227.6 790.8
06/09 08:10 25.6 82 19.52 22.3 2 4 1017.3 0 42.0 40.9 79.3 209.8 231.6 804.6
06/09 08:00 24.8 82 18.66 21.5 0 0 1017.1 0 40.2 39.7 76.0 201.1 220.7 766.6
06/09 07:50 23.9 85 18.39 21.2 0 0 1017.1 0 39.8 39.6 75.7 200.1 219.2 761.2
06/09 07:40 23.9 86 18.6 21.4 0 0 1017 0 40.2 40.0 76.6 202.7 222.4 772.5
06/09 07:30 23 91 18.7 21.5 0 0 1017 0 40.5 40.6 78.1 206.4 226.7 787.2
06/09 07:20 21.8 95 18.23 20.9 0 0 1016.9 0 39.6 40.3 77.0 203.6 222.9 773.7
06/09 07:10 21 95 17.4 20.1 0 0 1016.8 0 37.9 39.0 73.8 195.0 212.1 736.1
06/09 07:00 20.5 95 16.9 19.7 0 0 1016.7 0 36.9 38.3 71.9 189.9 205.7 713.6
06/09 06:50 20.5 95 16.9 19.6 0 0 1016.6 0 36.9 38.3 71.8 189.9 205.6 713.5
06/09 06:40 20.6 94 16.82 19.6 0 4 1016.5 0 36.7 38.1 71.4 188.6 204.1 708.2
06/09 06:30 20.9 92 16.75 19.6 0 0 1016.3 0 36.5 37.8 70.7 186.9 202.2 701.5
06/09 06:20 20.6 94 16.82 19.6 0 0 1016.1 0 36.7 38.1 71.3 188.5 204.0 708.0
06/09 06:10 20.7 94 16.92 19.7 0 0 1015.9 0 36.9 38.2 71.7 189.5 205.3 712.3
06/09 06:00 20.7 93 16.74 19.5 0 0 1015.8 0 36.5 37.9 70.8 187.2 202.5 702.6
06/09 05:50 20.8 93 16.84 19.6 0 0 1015.8 0 36.8 38.0 71.2 188.2 203.8 707.0
06/09 05:40 20.8 93 16.84 19.6 0 0 1015.7 0 36.8 38.0 71.2 188.2 203.7 707.0
06/09 05:30 20.9 93 16.94 19.7 0 0 1015.6 0 37.0 38.1 71.6 189.2 205.0 711.4
06/09 05:20 21 93 17.03 19.8 0 0 1015.4 0 37.1 38.3 71.9 190.1 206.1 715.2
06/09 05:10 21 93 17.03 19.8 0 0 1015.4 0 37.1 38.3 71.9 190.1 206.1 715.2
06/09 05:00 21.2 93 17.23 20 0 0 1015.3 0 37.6 38.5 72.7 192.1 208.7 724.1
06/09 04:50 21.4 92 17.25 20 0 0 1015.3 0 37.6 38.5 72.6 191.8 208.4 723.3
06/09 04:40 21.6 92 17.45 20.2 2 4 1015.2 0 38.0 38.8 73.3 193.9 210.9 732.1
06/09 04:30 21.7 92 17.55 20.3 0 0 1015.3 0 38.2 38.9 73.7 194.9 212.2 736.6
06/09 04:20 21.7 93 17.74 20.5 0 0 1015.3 0 38.6 39.3 74.6 197.3 215.2 747.0
06/09 04:10 21.6 93 17.64 20.4 0 0 1015.3 0 38.4 39.1 74.2 196.3 213.9 742.5
06/09 04:00 21.5 93 17.54 20.3 0 0 1015.3 0 38.2 39.0 73.9 195.3 212.7 738.1
06/09 03:50 21.4 93 17.43 20.2 0 0 1015.3 0 38.0 38.8 73.4 194.1 211.2 733.0
06/09 03:40 21.4 94 17.62 20.4 0 0 1015.2 0 38.4 39.2 74.3 196.5 214.2 743.4
06/09 03:30 21.3 92 17.15 19.9 0 0 1015.2 0 37.4 38.3 72.2 190.8 207.1 718.8
06/09 03:20 21.4 92 17.25 20 0 0 1015.1 0 37.6 38.5 72.6 191.8 208.4 723.2
06/09 03:10 21.4 92 17.25 20 2 4 1015.2 0 37.6 38.5 72.6 191.8 208.4 723.2
06/09 03:00 21.4 89 16.68 19.5 4 4 1015.2 0 36.4 37.4 69.9 184.7 199.6 692.6
06/09 02:50 21.7 89 16.98 19.8 0 4 1015.3 0 37.0 37.8 71.0 187.7 203.4 705.9
06/09 02:40 22.1 88 17.18 20 0 0 1015.3 0 37.4 38.0 71.6 189.2 205.4 712.8
06/09 02:30 22.1 88 17.18 20 0 0 1015.4 0 37.4 38.0 71.6 189.2 205.4 712.9
06/09 02:20 22.1 88 17.18 20 0 0 1015.5 0 37.4 38.0 71.6 189.2 205.4 712.9
06/09 02:10 22.2 87 17.08 19.9 0 0 1015.7 0 37.1 37.8 71.0 187.8 203.6 706.8
06/09 02:00 22.2 87 17.08 19.9 0 0 1015.8 0 37.1 37.8 71.0 187.8 203.6 706.8
06/09 01:50 22.7 86 17.37 20.2 0 0 1015.9 0 37.7 38.1 71.9 190.2 206.7 717.6
06/09 01:40 23.1 85 17.57 20.4 0 0 1016.1 0 38.1 38.3 72.5 191.7 208.7 724.6
06/09 01:30 23.2 83 17.25 20.2 0 0 1016.2 0 37.4 37.7 70.9 187.5 203.6 706.7
06/09 01:20 23.6 84 17.86 20.7 0 0 1016.4 0 38.7 38.7 73.4 194.1 211.8 735.4
06/09 01:10 23.6 84 17.86 20.7 0 0 1016.5 0 38.7 38.7 73.4 194.1 211.8 735.4
06/09 01:00 23.6 84 17.86 20.7 2 2 1016.6 0 38.7 38.7 73.4 194.1 211.8 735.5
06/09 00:50 23.8 83 17.85 20.7 2 2 1016.7 0 38.6 38.6 73.2 193.5 211.1 733.1
06/09 00:40 23.9 82 17.74 20.6 2 4 1016.7 0 38.4 38.3 72.6 191.9 209.2 726.2
06/09 00:30 24.1 83 18.16 21 0 2 1016.8 0 39.2 39.0 74.4 196.6 215.0 746.7
06/09 00:20 24.1 82 17.94 20.8 2 2 1016.9 0 38.8 38.6 73.3 193.9 211.7 735.0
06/09 00:10 24.3 82 18.15 21 6 7 1016.8 0 39.2 38.9 74.1 196.0 214.3 744.2
06/09 00:00 24.4 82 18.25 21.1 6 9 1016.8 0 39.4 39.1 74.5 196.9 215.5 748.5
05/09 23:50 24.4 81 18.03 20.9 6 7 1016.8 0 38.9 38.6 73.5 194.2 212.2 736.8
05/09 23:40 24.6 80 18.01 20.9 6 9 1016.8 0 38.9 38.5 73.2 193.4 211.3 733.8
05/09 23:30 24.6 80 18.01 20.9 7 9 1016.9 0 38.9 38.5 73.2 193.5 211.3 733.9
05/09 23:20 24.6 80 18.01 20.9 7 9 1016.9 0 38.9 38.5 73.2 193.5 211.3 733.9
05/09 23:10 24.6 80 18.01 20.9 7 9 1016.9 0 38.9 38.5 73.2 193.5 211.3 733.9
05/09 23:00 24.8 80 18.21 21.1 7 11 1016.8 0 39.3 38.8 73.9 195.4 213.8 742.5
05/09 22:50 24.7 80 18.11 21 7 9 1016.8 0 39.1 38.7 73.5 194.4 212.6 738.2
05/09 22:40 24.6 80 18.01 20.9 7 9 1016.7 0 38.9 38.5 73.2 193.4 211.3 733.8
05/09 22:30 24.5 79 17.68 20.6 7 9 1016.6 0 38.2 37.9 71.7 189.6 206.6 717.3
05/09 22:20 24.6 78 17.56 20.5 7 9 1016.7 0 37.9 37.7 71.1 187.9 204.5 710.2
05/09 22:10 24.8 77 17.53 20.5 7 11 1016.7 0 37.8 37.5 70.8 187.0 203.5 706.7
05/09 22:00 24.9 76 17.4 20.4 7 9 1016.6 0 37.6 37.2 70.1 185.2 201.3 699.0
05/09 21:50 25.2 75 17.46 20.5 9 13 1016.5 0 37.7 37.2 70.1 185.2 201.4 699.3
05/09 21:40 25.3 74 17.32 20.3 9 13 1016.4 0 37.3 36.9 69.3 183.3 199.0 691.2
05/09 21:30 25.4 73 17.19 20.2 9 13 1016.3 0 37.1 36.6 68.6 181.4 196.8 683.6

Last Refresh: 06-Sep-2026 14:04:14

Bureau of Meteorology